KEOE

Newberry County Airport

Newberry, South Carolina, USA
METAR KEOE 230815Z AUTO 23003KT 10SM BKN004 21/20 A3009 RMK AO2
Observed Flight Rules
May-23 @ 08:15 UTC (23 minutes ago) Instrument Flight Rules
Wind Visibility Clouds
230° at 3 knots 10 miles
  • Broken at 400' AGL
Temperatures Readings
Current 21°C / 70°F
Dewpoint 20°C / 68°F
Humidity 94%
Altimeter 30.09" Hg
Pressure 1019 hPa
Elevation 174
METAR KEOE 230815Z AUTO 23003KT 10SM BKN004 21/20 A3009 RMK AO2
Observed Flight Rules
May-23 @ 08:15 UTC
(23 minutes ago)
LIFR
Wind Visibility
230° at 3 knots 10 miles
Clouds
  • Broken at 400' AGL
Temperature Dewpoint
21°C / 70°F 20°C / 68°F
Humidity Altimeter Pressure
94% 30.09" Hg 1019 hPa